createdAt,value
2022-08-23T00:01:27.936Z,16.95
2022-08-23T00:06:27.232Z,15.80
2022-08-23T00:08:54.299Z,15.95
2022-08-23T00:11:28.089Z,15.75
2022-08-23T00:13:55.513Z,16.08
2022-08-23T00:16:22.941Z,17.05
2022-08-23T00:18:50.200Z,16.27
2022-08-23T00:21:17.308Z,17.45
2022-08-23T00:23:44.170Z,16.02
2022-08-23T00:26:11.189Z,15.75
2022-08-23T00:28:38.114Z,16.52
2022-08-23T00:31:05.470Z,17.08
2022-08-23T00:33:32.580Z,17.17
2022-08-23T00:35:59.407Z,16.33
2022-08-23T00:38:31.785Z,16.10
2022-08-23T00:41:02.517Z,16.05
2022-08-23T00:43:56.293Z,15.98
2022-08-23T00:46:44.717Z,15.57
2022-08-23T00:49:12.921Z,15.15
2022-08-23T00:51:53.086Z,15.52
2022-08-23T00:54:22.348Z,16.42
2022-08-23T00:56:50.165Z,15.18
2022-08-23T00:59:17.300Z,16.48
2022-08-23T01:01:44.258Z,16.23
2022-08-23T01:04:12.373Z,15.95
2022-08-23T01:06:53.939Z,16.10
2022-08-23T01:09:22.300Z,15.45
2022-08-23T01:11:51.801Z,16.15
2022-08-23T01:14:31.288Z,15.25
2022-08-23T01:17:24.775Z,15.60
2022-08-23T01:20:00.563Z,15.55
2022-08-23T01:22:35.231Z,15.35
2022-08-23T01:25:08.954Z,14.93
2022-08-23T01:27:38.782Z,16.33
2022-08-23T01:30:08.083Z,15.25
2022-08-23T01:32:41.898Z,15.63
2022-08-23T01:35:09.272Z,15.23
2022-08-23T01:37:36.448Z,16.35
2022-08-23T01:40:05.018Z,15.15
2022-08-23T01:42:31.953Z,15.55
2022-08-23T01:44:58.764Z,15.85
2022-08-23T01:47:25.570Z,15.73
2022-08-23T01:49:52.368Z,14.77
2022-08-23T01:52:19.611Z,15.95
2022-08-23T01:54:46.792Z,16.17
2022-08-23T01:57:13.840Z,15.13
2022-08-23T01:59:42.671Z,15.85
2022-08-23T02:02:09.509Z,15.85
2022-08-23T02:04:36.340Z,15.77
2022-08-23T02:07:03.170Z,15.65
2022-08-23T02:09:32.062Z,15.65
2022-08-23T02:11:59.687Z,15.75
2022-08-23T02:14:26.518Z,16.17
2022-08-23T02:17:02.910Z,14.98
2022-08-23T02:19:32.561Z,16.90
2022-08-23T02:21:59.368Z,15.27
2022-08-23T02:24:26.488Z,16.40
2022-08-23T02:26:57.028Z,16.02
2022-08-23T02:29:25.629Z,16.05
2022-08-23T02:31:52.738Z,16.58
2022-08-23T02:34:20.653Z,16.67
2022-08-23T02:36:48.346Z,15.68
2022-08-23T02:39:19.396Z,16.88
2022-08-23T02:41:46.394Z,15.65
2022-08-23T02:44:14.153Z,16.42
2022-08-23T02:46:41.672Z,15.82
2022-08-23T02:49:08.830Z,16.05
2022-08-23T02:51:35.846Z,15.75
2022-08-23T02:54:02.878Z,16.83
2022-08-23T02:56:29.722Z,16.38
2022-08-23T02:58:56.507Z,15.70
2022-08-23T03:01:27.418Z,15.90
2022-08-23T03:03:54.366Z,16.57
2022-08-23T03:06:25.034Z,16.13
2022-08-23T03:11:22.488Z,16.10
2022-08-23T03:13:50.726Z,16.13
2022-08-23T03:16:19.080Z,16.50
2022-08-23T03:18:46.900Z,16.95
2022-08-23T03:21:17.244Z,18.25
2022-08-23T03:23:44.202Z,17.75
2022-08-23T03:26:13.569Z,17.38
2022-08-23T03:28:42.216Z,17.73
2022-08-23T03:31:09.829Z,17.77
2022-08-23T03:33:37.335Z,17.60
2022-08-23T03:36:07.512Z,17.45
2022-08-23T03:38:34.921Z,17.92
2022-08-23T03:41:02.120Z,17.23
2022-08-23T03:43:29.163Z,17.55
2022-08-23T03:45:56.195Z,16.73
2022-08-23T03:48:23.338Z,16.77
2022-08-23T03:50:50.149Z,17.05
2022-08-23T03:53:24.168Z,16.92
2022-08-23T03:55:53.685Z,15.57
2022-08-23T03:58:21.789Z,16.35
2022-08-23T04:00:49.209Z,17.80
2022-08-23T04:03:16.419Z,15.65
2022-08-23T04:05:43.629Z,16.20
2022-08-23T04:08:11.710Z,16.25
2022-08-23T04:10:39.283Z,15.43
2022-08-23T04:13:09.392Z,15.35
2022-08-23T04:15:37.341Z,15.18
2022-08-23T04:18:05.085Z,15.95
2022-08-23T04:20:33.256Z,14.80
2022-08-23T04:23:00.186Z,15.50
2022-08-23T04:25:34.816Z,15.68
2022-08-23T04:28:02.904Z,16.33
2022-08-23T04:30:30.358Z,15.43
2022-08-23T04:32:57.429Z,13.82
2022-08-23T04:35:25.567Z,14.85
2022-08-23T04:37:53.560Z,15.32
2022-08-23T04:40:39.057Z,14.65
2022-08-23T04:43:07.044Z,14.63
2022-08-23T04:45:33.825Z,13.82
2022-08-23T04:48:00.807Z,13.73
2022-08-23T04:50:27.736Z,14.07
2022-08-23T04:52:54.569Z,13.27
2022-08-23T04:55:22.201Z,14.07
2022-08-23T04:57:49.090Z,14.30
2022-08-23T05:00:17.003Z,14.40
2022-08-23T05:02:43.921Z,13.93
2022-08-23T05:05:11.425Z,14.52
2022-08-23T05:07:42.839Z,14.35
2022-08-23T05:10:13.342Z,14.48
2022-08-23T05:12:40.913Z,14.73
2022-08-23T05:15:09.639Z,14.48
2022-08-23T05:17:37.091Z,14.90
2022-08-23T05:20:06.580Z,15.00
2022-08-23T05:22:34.413Z,14.85
2022-08-23T05:25:01.208Z,14.85
2022-08-23T05:27:28.235Z,14.02
2022-08-23T05:29:55.022Z,14.95
2022-08-23T05:32:22.900Z,13.85
2022-08-23T05:34:49.839Z,14.07
2022-08-23T05:37:17.870Z,13.00
2022-08-23T05:39:44.721Z,12.85
2022-08-23T05:42:16.153Z,13.07
2022-08-23T05:44:45.237Z,14.15
2022-08-23T05:47:15.505Z,12.63
2022-08-23T05:49:43.156Z,12.88
2022-08-23T05:52:14.987Z,13.25
2022-08-23T05:57:10.574Z,12.93
2022-08-23T05:59:37.547Z,12.82
2022-08-23T06:02:04.630Z,12.40
2022-08-23T06:04:31.588Z,12.30
2022-08-23T06:06:59.035Z,13.07
2022-08-23T06:09:26.417Z,12.45
2022-08-23T06:11:53.405Z,12.93
2022-08-23T06:14:20.348Z,12.80
2022-08-23T06:16:52.574Z,12.18
2022-08-23T06:19:21.946Z,12.18
2022-08-23T06:21:49.606Z,12.13
2022-08-23T06:24:16.506Z,12.20
2022-08-23T06:26:45.373Z,12.25
2022-08-23T06:29:16.384Z,12.10
2022-08-23T06:31:49.303Z,12.13
2022-08-23T06:34:18.610Z,12.55
2022-08-23T06:36:51.525Z,11.88
2022-08-23T06:39:20.813Z,12.18
2022-08-23T06:41:50.358Z,13.70
2022-08-23T06:44:19.018Z,12.68
2022-08-23T06:46:48.752Z,12.65
2022-08-23T06:49:16.246Z,11.68
2022-08-23T06:51:46.293Z,12.82
2022-08-23T06:54:14.909Z,11.57
2022-08-23T06:56:43.630Z,12.48
2022-08-23T06:59:12.228Z,12.15
2022-08-23T07:01:46.939Z,12.30
2022-08-23T07:04:18.217Z,12.10
2022-08-23T07:06:45.966Z,12.50
2022-08-23T07:09:13.561Z,12.27
2022-08-23T07:11:41.236Z,12.45
2022-08-23T07:14:12.061Z,12.60
2022-08-23T07:16:41.946Z,12.07
2022-08-23T07:19:09.282Z,12.60
2022-08-23T07:21:37.325Z,12.95
2022-08-23T07:24:05.156Z,13.15
2022-08-23T07:26:32.735Z,13.60
2022-08-23T07:28:59.517Z,12.77
2022-08-23T07:31:30.774Z,12.98
2022-08-23T07:34:03.613Z,11.95
2022-08-23T07:36:32.976Z,12.30
2022-08-23T07:39:00.962Z,12.85
2022-08-23T07:41:32.832Z,12.27
2022-08-23T07:44:02.769Z,12.60
2022-08-23T07:46:31.314Z,12.50
2022-08-23T07:49:00.297Z,12.63
2022-08-23T07:51:29.575Z,12.43
2022-08-23T07:53:56.569Z,12.32
2022-08-23T07:56:23.657Z,12.45
2022-08-23T07:58:50.445Z,11.85
2022-08-23T08:01:24.650Z,11.18
2022-08-23T08:03:54.311Z,11.70
2022-08-23T08:06:26.007Z,11.13
2022-08-23T08:08:53.353Z,11.20
2022-08-23T08:11:24.265Z,10.27
2022-08-23T08:13:51.822Z,11.07
2022-08-23T08:16:31.242Z,11.40
2022-08-23T08:19:00.253Z,11.38
2022-08-23T08:21:28.824Z,11.20
2022-08-23T08:23:57.560Z,10.50
2022-08-23T08:26:26.019Z,11.25
2022-08-23T08:28:54.697Z,10.77
2022-08-23T08:31:21.849Z,11.40
2022-08-23T08:33:48.919Z,11.63
2022-08-23T08:36:35.333Z,11.80
2022-08-23T08:39:06.613Z,11.93
2022-08-23T08:41:39.039Z,13.20
2022-08-23T08:44:16.323Z,12.35
2022-08-23T08:46:50.234Z,12.95
2022-08-23T08:49:33.286Z,11.55
2022-08-23T08:52:08.646Z,11.73
2022-08-23T08:54:37.695Z,11.00
2022-08-23T08:57:07.882Z,11.18
2022-08-23T08:59:59.446Z,10.38
2022-08-23T09:02:32.603Z,10.27
2022-08-23T09:05:09.702Z,10.15
2022-08-23T09:07:46.079Z,10.35
2022-08-23T09:10:52.216Z,10.30
2022-08-23T09:13:55.702Z,10.23
2022-08-23T09:16:44.025Z,10.13
2022-08-23T09:19:11.229Z,10.00
2022-08-23T09:21:54.298Z,10.27
2022-08-23T09:24:21.245Z,10.15
2022-08-23T09:26:48.184Z,10.48
2022-08-23T09:29:18.808Z,10.65
2022-08-23T09:31:58.560Z,11.80
2022-08-23T09:34:31.161Z,11.15
2022-08-23T09:37:25.239Z,11.48
2022-08-23T09:40:13.505Z,10.50
2022-08-23T09:42:41.394Z,11.60
2022-08-23T09:45:35.453Z,11.73
2022-08-23T09:48:03.820Z,11.82
2022-08-23T09:50:42.293Z,11.35
2022-08-23T09:53:14.442Z,11.13
2022-08-23T09:55:54.446Z,10.90
2022-08-23T09:58:32.098Z,10.45
2022-08-23T10:01:19.179Z,10.25
2022-08-23T10:03:46.496Z,10.43
2022-08-23T10:06:31.054Z,9.95
2022-08-23T10:09:02.258Z,9.65
2022-08-23T10:11:32.599Z,9.85
2022-08-23T10:13:59.419Z,9.48
2022-08-23T10:16:40.063Z,9.15
2022-08-23T10:19:26.024Z,9.65
2022-08-23T10:22:18.258Z,9.82
2022-08-23T10:24:55.482Z,9.68
2022-08-23T10:27:59.760Z,9.70
2022-08-23T10:30:47.890Z,8.32
2022-08-23T10:33:35.112Z,7.68
2022-08-23T10:36:22.950Z,8.40
2022-08-23T10:38:57.636Z,7.45
2022-08-23T10:41:39.701Z,7.15
2022-08-23T10:44:54.207Z,7.28
2022-08-23T10:48:16.237Z,7.68
2022-08-23T10:51:22.690Z,7.43
2022-08-23T10:54:07.874Z,7.40
2022-08-23T10:56:36.461Z,7.45
2022-08-23T10:59:21.377Z,7.30
2022-08-23T11:01:53.793Z,7.30
2022-08-23T11:04:29.749Z,7.15
2022-08-23T11:06:59.259Z,6.40
2022-08-23T11:09:26.052Z,7.00
2022-08-23T11:12:11.412Z,8.15
2022-08-23T11:14:39.830Z,8.93
2022-08-23T11:17:23.596Z,9.00
2022-08-23T11:19:53.264Z,9.32
2022-08-23T11:22:23.888Z,6.60
2022-08-23T11:24:55.766Z,6.35
2022-08-23T11:27:28.701Z,6.70
2022-08-23T11:29:55.808Z,6.32
2022-08-23T11:32:42.998Z,6.40
2022-08-23T11:35:28.609Z,6.30
2022-08-23T11:38:05.920Z,6.28
2022-08-23T11:40:50.778Z,6.07
2022-08-23T11:43:29.809Z,6.22
2022-08-23T11:46:35.245Z,6.78
2022-08-23T11:49:20.586Z,7.10
2022-08-23T11:51:55.981Z,6.45
2022-08-23T11:54:56.189Z,6.60
2022-08-23T11:57:44.816Z,6.72
2022-08-23T12:00:55.780Z,7.07
2022-08-23T12:03:32.590Z,6.78
2022-08-23T12:06:08.440Z,7.47
2022-08-23T12:08:41.329Z,7.00
2022-08-23T12:11:10.662Z,6.65
2022-08-23T12:13:49.651Z,7.20
2022-08-23T12:16:17.720Z,7.30
2022-08-23T12:18:53.358Z,8.15
2022-08-23T12:21:43.087Z,7.47
2022-08-23T12:24:22.188Z,6.97
2022-08-23T12:27:24.141Z,7.22
2022-08-23T12:29:58.203Z,7.53
2022-08-23T12:33:04.858Z,7.28
2022-08-23T12:35:53.346Z,7.25
2022-08-23T12:38:58.470Z,7.28
2022-08-23T12:41:48.686Z,7.35
2022-08-23T12:44:19.358Z,7.10
2022-08-23T12:46:49.205Z,7.15
2022-08-23T12:49:29.476Z,7.47
2022-08-23T12:52:00.956Z,7.63
2022-08-23T12:54:43.651Z,6.82
2022-08-23T12:57:33.129Z,6.55
2022-08-23T13:00:18.467Z,7.43
2022-08-23T13:03:13.005Z,7.35
2022-08-23T13:05:45.985Z,7.43
2022-08-23T13:08:27.349Z,7.60
2022-08-23T13:11:07.674Z,7.28
2022-08-23T13:13:37.053Z,6.93
2022-08-23T13:16:26.871Z,7.32
2022-08-23T13:18:56.131Z,7.13
2022-08-23T13:21:23.033Z,7.05
2022-08-23T13:23:56.270Z,7.57
2022-08-23T13:26:43.736Z,7.38
2022-08-23T13:29:24.311Z,7.20
2022-08-23T13:32:03.445Z,7.20
2022-08-23T13:34:47.126Z,7.03
2022-08-23T13:37:21.305Z,6.88
2022-08-23T13:40:05.598Z,6.82
2022-08-23T13:43:01.294Z,6.93
2022-08-23T13:45:32.154Z,6.90
2022-08-23T13:50:39.130Z,6.40
2022-08-23T13:53:15.674Z,6.45
2022-08-23T13:55:48.988Z,6.78
2022-08-23T13:58:31.084Z,6.57
2022-08-23T14:01:00.616Z,7.00
2022-08-23T14:03:29.199Z,6.88
2022-08-23T14:05:56.163Z,7.55
2022-08-23T14:08:23.583Z,6.72
2022-08-23T14:10:54.401Z,6.97
2022-08-23T14:13:28.291Z,6.88
2022-08-23T14:21:35.245Z,7.22
2022-08-23T14:24:02.281Z,7.93
2022-08-23T14:26:29.520Z,7.32
2022-08-23T14:28:56.476Z,7.53
2022-08-23T14:31:23.995Z,7.80
2022-08-23T14:33:50.853Z,6.90
2022-08-23T14:36:17.885Z,7.20
2022-08-23T14:38:44.693Z,7.43
2022-08-23T14:41:21.092Z,7.07
2022-08-23T14:43:52.845Z,7.40
2022-08-23T14:46:21.890Z,7.40
2022-08-23T14:48:48.782Z,7.47
2022-08-23T14:51:30.573Z,7.55
2022-08-23T14:53:57.368Z,7.28
2022-08-23T14:56:24.321Z,7.43
2022-08-23T14:58:53.222Z,7.53
2022-08-23T15:01:20.909Z,6.90
2022-08-23T15:03:49.449Z,7.82
2022-08-23T15:06:18.261Z,7.90
2022-08-23T15:08:45.672Z,7.80
2022-08-23T15:14:02.681Z,8.15
2022-08-23T15:16:30.033Z,7.30
2022-08-23T15:18:57.869Z,8.32
2022-08-23T15:21:24.755Z,7.70
2022-08-23T15:23:51.610Z,7.70
2022-08-23T15:26:24.530Z,8.25
2022-08-23T15:28:51.500Z,7.53
2022-08-23T15:31:19.901Z,7.55
2022-08-23T15:33:46.967Z,7.57
2022-08-23T15:36:16.066Z,7.68
2022-08-23T15:38:47.905Z,8.10
2022-08-23T15:41:16.585Z,8.20
2022-08-23T15:43:44.507Z,8.88
2022-08-23T15:46:22.825Z,7.80
2022-08-23T15:49:04.365Z,7.57
2022-08-23T15:51:32.126Z,7.63
2022-08-23T15:53:58.981Z,8.07
2022-08-23T15:56:34.016Z,7.75
2022-08-23T15:59:01.343Z,7.68
2022-08-23T16:01:33.588Z,7.40
2022-08-23T16:04:02.180Z,7.82
2022-08-23T16:06:32.206Z,7.93
2022-08-23T16:09:04.411Z,7.70
2022-08-23T16:11:31.894Z,7.32
2022-08-23T16:13:58.906Z,8.18
2022-08-23T16:16:31.071Z,7.35
2022-08-23T16:18:59.785Z,7.53
2022-08-23T16:21:29.413Z,8.65
2022-08-23T16:23:57.500Z,9.05
2022-08-23T16:26:34.763Z,9.43
2022-08-23T16:29:06.217Z,10.02
2022-08-23T16:31:39.144Z,10.18
2022-08-23T16:34:09.602Z,11.52
2022-08-23T16:36:37.048Z,13.07
2022-08-23T16:39:05.411Z,14.02
2022-08-23T16:41:32.448Z,15.57
2022-08-23T16:43:59.485Z,16.80
2022-08-23T16:46:27.433Z,18.35
2022-08-23T16:48:54.412Z,22.65
2022-08-23T16:51:22.268Z,26.85
2022-08-23T16:54:01.618Z,30.45
2022-08-23T16:56:34.155Z,36.15
2022-08-23T16:59:01.507Z,40.55
2022-08-23T17:01:29.847Z,38.88
2022-08-23T17:03:56.848Z,39.88
2022-08-23T17:06:23.657Z,44.05
2022-08-23T17:08:50.519Z,45.60
2022-08-23T17:11:19.640Z,46.17
2022-08-23T17:13:46.678Z,46.80
2022-08-23T17:16:13.663Z,45.25
2022-08-23T17:18:40.645Z,47.70
2022-08-23T17:21:09.133Z,45.75
2022-08-23T17:23:39.282Z,45.53
2022-08-23T17:26:09.573Z,45.13
2022-08-23T17:28:36.630Z,42.35
2022-08-23T17:31:03.980Z,43.25
2022-08-23T17:33:30.875Z,40.72
2022-08-23T17:35:57.937Z,39.90
2022-08-23T17:38:24.745Z,35.67
2022-08-23T17:40:52.331Z,33.00
2022-08-23T17:43:19.245Z,31.35
2022-08-23T17:45:48.792Z,27.38
2022-08-23T17:48:17.719Z,25.95
2022-08-23T17:50:46.179Z,24.17
2022-08-23T17:53:15.156Z,26.15
2022-08-23T17:55:43.015Z,25.63
2022-08-23T17:58:10.378Z,22.25
2022-08-23T18:00:39.353Z,18.23
2022-08-23T18:03:06.908Z,21.45
2022-08-23T18:05:34.906Z,19.48
2022-08-23T18:08:02.210Z,20.33
2022-08-23T18:10:30.161Z,20.02
2022-08-23T18:12:58.022Z,19.73
2022-08-23T18:15:25.318Z,16.15
2022-08-23T18:17:53.963Z,15.80
2022-08-23T18:20:29.068Z,14.82
2022-08-23T18:22:58.373Z,16.23
2022-08-23T18:25:26.648Z,15.93
2022-08-23T18:28:09.342Z,15.25
2022-08-23T18:30:38.937Z,15.18
2022-08-23T18:33:06.754Z,14.38
2022-08-23T18:35:34.685Z,15.70
2022-08-23T18:38:02.189Z,14.90
2022-08-23T18:40:29.939Z,15.70
2022-08-23T18:42:57.562Z,15.68
2022-08-23T18:45:24.481Z,15.38
2022-08-23T18:47:51.428Z,14.88
2022-08-23T18:50:18.706Z,14.32
2022-08-23T18:52:45.578Z,13.27
2022-08-23T18:55:12.416Z,13.20
2022-08-23T18:57:39.283Z,12.43
2022-08-23T19:00:09.675Z,13.65
2022-08-23T19:02:36.510Z,13.30
2022-08-23T19:05:04.078Z,12.88
2022-08-23T19:07:31.061Z,12.30
2022-08-23T19:09:57.982Z,11.90
2022-08-23T19:12:24.852Z,14.23
2022-08-23T19:14:54.890Z,14.20
2022-08-23T19:17:22.107Z,12.82
2022-08-23T19:19:49.135Z,13.45
2022-08-23T19:22:16.180Z,13.50
2022-08-23T19:24:43.322Z,14.05
2022-08-23T19:27:10.292Z,12.60
2022-08-23T19:29:37.237Z,11.88
2022-08-23T19:32:04.700Z,15.35
2022-08-23T19:34:31.717Z,15.50
2022-08-23T19:37:01.092Z,17.35
2022-08-23T19:39:29.486Z,18.13
2022-08-23T19:41:56.683Z,18.88
2022-08-23T19:44:23.773Z,19.25
2022-08-23T19:46:50.797Z,17.83
2022-08-23T19:49:18.015Z,16.00
2022-08-23T19:51:44.983Z,16.67
2022-08-23T19:54:13.177Z,16.48
2022-08-23T19:56:45.738Z,16.83
2022-08-23T19:59:17.294Z,17.23
2022-08-23T20:01:44.621Z,16.67
2022-08-23T20:04:12.002Z,17.15
2022-08-23T20:06:39.046Z,17.08
2022-08-23T20:09:07.137Z,18.27
2022-08-23T20:11:34.346Z,18.55
2022-08-23T20:14:01.461Z,18.83
2022-08-23T20:16:29.213Z,16.45
2022-08-23T20:18:56.094Z,14.63
2022-08-23T20:21:24.077Z,13.90
2022-08-23T20:24:06.669Z,11.60
2022-08-23T20:26:40.838Z,13.70
2022-08-23T20:29:13.685Z,11.35
2022-08-23T20:31:53.297Z,13.07
2022-08-23T20:34:20.700Z,11.98
2022-08-23T20:36:47.849Z,11.60
2022-08-23T20:39:19.276Z,11.38
2022-08-23T20:41:49.102Z,11.00
2022-08-23T20:44:16.160Z,10.80
2022-08-23T20:46:46.684Z,11.90
2022-08-23T20:49:14.741Z,11.90
2022-08-23T20:51:41.681Z,11.15
2022-08-23T20:54:11.305Z,10.88
2022-08-23T20:56:39.503Z,10.98
2022-08-23T20:59:07.951Z,10.10
2022-08-23T21:01:37.301Z,11.45
2022-08-23T21:04:07.141Z,10.82
2022-08-23T21:06:46.978Z,11.45
2022-08-23T21:09:19.258Z,9.13
2022-08-23T21:14:15.408Z,9.95
2022-08-23T21:16:44.265Z,9.10
2022-08-23T21:19:11.544Z,9.30
2022-08-23T21:21:40.145Z,9.45
2022-08-23T21:24:08.272Z,9.40
2022-08-23T21:26:36.373Z,9.90
2022-08-23T21:29:04.296Z,8.68
2022-08-23T21:31:31.738Z,8.57
2022-08-23T21:34:00.537Z,8.25
2022-08-23T21:36:28.101Z,7.78
2022-08-23T21:38:54.918Z,8.98
2022-08-23T21:41:29.915Z,9.07
2022-08-23T21:43:56.833Z,8.27
2022-08-23T21:46:23.833Z,8.20
2022-08-23T21:48:50.721Z,9.20
2022-08-23T21:51:17.668Z,9.10
2022-08-23T21:53:44.589Z,9.13
2022-08-23T21:56:11.385Z,9.10
2022-08-23T21:58:38.250Z,9.43
2022-08-23T22:01:05.309Z,9.23
2022-08-23T22:03:32.708Z,9.20
2022-08-23T22:05:59.574Z,8.85
2022-08-23T22:08:26.361Z,9.55
2022-08-23T22:10:57.919Z,8.90
2022-08-23T22:13:28.846Z,9.07
2022-08-23T22:15:56.300Z,9.00
2022-08-23T22:18:23.382Z,9.45
2022-08-23T22:20:50.307Z,9.45
2022-08-23T22:23:17.408Z,8.32
2022-08-23T22:25:44.328Z,8.30
2022-08-23T22:28:11.226Z,7.75
2022-08-23T22:30:38.138Z,8.40
2022-08-23T22:33:05.124Z,8.50
2022-08-23T22:35:36.303Z,8.57
2022-08-23T22:38:13.819Z,8.07
2022-08-23T22:40:51.261Z,7.43
2022-08-23T22:43:19.341Z,8.07
2022-08-23T22:46:01.417Z,8.27
2022-08-23T22:48:31.575Z,7.97
2022-08-23T22:51:09.652Z,7.95
2022-08-23T22:53:39.284Z,7.90
2022-08-23T22:56:07.173Z,7.47
2022-08-23T22:58:34.668Z,7.60
2022-08-23T23:01:03.749Z,6.55
2022-08-23T23:03:36.740Z,8.20
2022-08-23T23:06:06.594Z,7.65
2022-08-23T23:08:33.486Z,6.30
2022-08-23T23:11:06.263Z,6.32
2022-08-23T23:13:34.483Z,6.40
2022-08-23T23:16:06.815Z,6.80
2022-08-23T23:18:34.418Z,6.28
2022-08-23T23:21:04.165Z,6.20
2022-08-23T23:23:32.798Z,6.47
2022-08-23T23:25:59.879Z,6.90
2022-08-23T23:28:27.569Z,7.30
2022-08-23T23:30:55.675Z,6.70
2022-08-23T23:33:23.322Z,6.63
2022-08-23T23:35:51.828Z,6.85
2022-08-23T23:38:18.930Z,6.80
2022-08-23T23:40:46.001Z,6.57
2022-08-23T23:43:13.357Z,7.38
2022-08-23T23:45:41.499Z,7.68
2022-08-23T23:48:09.572Z,6.68
2022-08-23T23:50:45.190Z,7.10
2022-08-23T23:53:14.599Z,7.05
2022-08-23T23:55:42.201Z,7.10
2022-08-23T23:58:09.204Z,7.30
